createdAt,value
2019-02-07T00:01:08.898Z,11.15
2019-02-07T00:03:38.256Z,9.95
2019-02-07T00:06:07.630Z,9.93
2019-02-07T00:08:37.089Z,11.00
2019-02-07T00:11:06.479Z,10.25
2019-02-07T00:13:35.855Z,10.65
2019-02-07T00:16:05.267Z,10.23
2019-02-07T00:18:34.618Z,10.48
2019-02-07T00:21:04.001Z,9.50
2019-02-07T00:23:33.428Z,9.25
2019-02-07T00:26:02.788Z,10.48
2019-02-07T00:28:32.176Z,9.63
2019-02-07T00:31:01.705Z,9.30
2019-02-07T00:33:31.085Z,9.88
2019-02-07T00:36:00.438Z,8.90
2019-02-07T00:38:29.942Z,9.18
2019-02-07T00:40:59.302Z,10.00
2019-02-07T00:43:28.676Z,8.78
2019-02-07T00:45:58.084Z,9.33
2019-02-07T00:48:27.567Z,8.73
2019-02-07T00:50:56.944Z,8.83
2019-02-07T00:53:26.334Z,7.90
2019-02-07T00:55:55.688Z,8.70
2019-02-07T00:58:25.061Z,9.33
2019-02-07T01:00:54.474Z,8.85
2019-02-07T01:03:24.032Z,7.75
2019-02-07T01:05:53.464Z,8.15
2019-02-07T01:08:22.862Z,9.10
2019-02-07T01:10:52.649Z,8.78
2019-02-07T01:13:21.986Z,8.35
2019-02-07T01:15:51.392Z,8.38
2019-02-07T01:18:21.219Z,8.58
2019-02-07T01:20:50.598Z,9.00
2019-02-07T01:23:20.015Z,9.90
2019-02-07T01:25:49.368Z,9.33
2019-02-07T01:28:18.763Z,9.33
2019-02-07T01:30:48.191Z,9.05
2019-02-07T01:33:17.861Z,9.95
2019-02-07T01:35:47.222Z,9.08
2019-02-07T01:38:17.808Z,10.13
2019-02-07T01:40:47.586Z,9.48
2019-02-07T01:43:16.944Z,9.90
2019-02-07T01:45:46.447Z,10.25
2019-02-07T01:48:16.112Z,9.78
2019-02-07T01:50:45.473Z,9.55
2019-02-07T01:53:14.895Z,9.18
2019-02-07T01:55:44.258Z,8.53
2019-02-07T01:58:13.602Z,9.60
2019-02-07T02:00:43.044Z,9.43
2019-02-07T02:03:12.939Z,10.25
2019-02-07T02:05:42.397Z,10.65
2019-02-07T02:08:11.784Z,9.30
2019-02-07T02:10:41.143Z,9.68
2019-02-07T02:13:10.526Z,10.18
2019-02-07T02:15:39.982Z,9.13
2019-02-07T02:18:09.734Z,8.33
2019-02-07T02:20:39.100Z,8.40
2019-02-07T02:23:08.495Z,8.40
2019-02-07T02:25:37.845Z,9.15
2019-02-07T02:28:07.220Z,8.50
2019-02-07T02:30:36.696Z,7.60
2019-02-07T02:33:06.376Z,6.30
2019-02-07T02:35:35.734Z,7.17
2019-02-07T02:38:05.134Z,7.33
2019-02-07T02:40:34.564Z,6.70
2019-02-07T02:43:03.940Z,7.10
2019-02-07T02:45:37.517Z,5.90
2019-02-07T02:48:04.332Z,7.15
2019-02-07T02:50:33.693Z,6.25
2019-02-07T02:53:03.092Z,6.35
2019-02-07T02:55:36.825Z,6.28
2019-02-07T02:58:06.306Z,6.17
2019-02-07T03:00:37.590Z,6.65
2019-02-07T03:03:17.632Z,6.70
2019-02-07T03:05:54.821Z,7.30
2019-02-07T03:08:31.787Z,8.68
2019-02-07T03:11:03.533Z,8.93
2019-02-07T03:13:37.356Z,9.00
2019-02-07T03:16:17.251Z,9.50
2019-02-07T03:18:49.304Z,9.10
2019-02-07T03:21:38.912Z,8.70
2019-02-07T03:24:16.087Z,8.30
2019-02-07T03:26:47.092Z,8.78
2019-02-07T03:29:18.086Z,9.13
2019-02-07T03:32:05.639Z,8.28
2019-02-07T03:34:39.600Z,8.48
2019-02-07T03:37:13.384Z,8.80
2019-02-07T03:39:44.685Z,9.25
2019-02-07T03:42:30.939Z,8.75
2019-02-07T03:45:14.190Z,9.08
2019-02-07T03:47:48.451Z,8.60
2019-02-07T03:50:22.787Z,8.63
2019-02-07T03:53:10.332Z,9.93
2019-02-07T03:55:41.320Z,8.80
2019-02-07T03:58:18.498Z,10.08
2019-02-07T04:01:04.734Z,10.58
2019-02-07T04:03:44.776Z,8.23
2019-02-07T04:06:21.612Z,8.20
2019-02-07T04:09:08.727Z,8.78
2019-02-07T04:11:43.081Z,7.67
2019-02-07T04:14:14.145Z,8.85
2019-02-07T04:16:45.158Z,8.25
2019-02-07T04:19:28.066Z,7.78
2019-02-07T04:21:59.054Z,8.13
2019-02-07T04:24:30.039Z,7.92
2019-02-07T04:27:01.068Z,8.73
2019-02-07T04:29:35.009Z,10.18
2019-02-07T04:32:11.812Z,9.28
2019-02-07T04:34:43.233Z,9.80
2019-02-07T04:37:26.284Z,10.00
2019-02-07T04:40:13.527Z,8.80
2019-02-07T04:42:53.900Z,9.08
2019-02-07T04:45:24.897Z,9.35
2019-02-07T04:48:05.101Z,7.55
2019-02-07T04:50:42.949Z,8.20
2019-02-07T04:53:16.691Z,7.12
2019-02-07T04:55:50.545Z,8.10
2019-02-07T04:58:24.373Z,7.95
2019-02-07T05:01:08.411Z,8.55
2019-02-07T05:03:51.629Z,8.37
2019-02-07T05:06:31.589Z,7.78
2019-02-07T05:09:20.711Z,8.68
2019-02-07T05:11:54.904Z,8.80
2019-02-07T05:14:28.962Z,8.63
2019-02-07T05:17:02.883Z,8.33
2019-02-07T05:19:34.629Z,7.60
2019-02-07T05:22:17.506Z,8.08
2019-02-07T05:25:00.658Z,8.20
2019-02-07T05:27:48.068Z,8.48
2019-02-07T05:30:24.674Z,8.03
2019-02-07T05:32:55.681Z,8.20
2019-02-07T05:35:42.902Z,8.53
2019-02-07T05:38:26.012Z,7.97
2019-02-07T05:41:13.496Z,8.85
2019-02-07T05:43:48.124Z,8.80
2019-02-07T05:46:35.576Z,9.93
2019-02-07T05:49:23.047Z,9.60
2019-02-07T05:52:11.147Z,9.00
2019-02-07T05:54:58.427Z,9.55
2019-02-07T05:57:46.138Z,9.13
2019-02-07T06:00:17.424Z,9.05
2019-02-07T06:02:48.445Z,10.03
2019-02-07T06:05:19.462Z,10.03
2019-02-07T06:08:06.226Z,10.82
2019-02-07T06:10:39.940Z,10.82
2019-02-07T06:13:25.954Z,10.82
2019-02-07T06:16:02.784Z,10.53
2019-02-07T06:18:39.709Z,12.35
2019-02-07T06:21:27.012Z,11.53
2019-02-07T06:24:07.316Z,13.72
2019-02-07T06:26:38.343Z,15.18
2019-02-07T06:29:09.367Z,11.85
2019-02-07T06:31:40.428Z,12.03
2019-02-07T06:34:11.720Z,10.93
2019-02-07T06:36:42.740Z,11.80
2019-02-07T06:39:30.277Z,11.20
2019-02-07T06:42:01.274Z,11.50
2019-02-07T06:44:32.713Z,12.95
2019-02-07T06:47:13.825Z,11.60
2019-02-07T06:49:47.875Z,12.00
2019-02-07T06:52:37.986Z,13.18
2019-02-07T06:55:26.571Z,12.25
2019-02-07T06:58:03.377Z,13.13
2019-02-07T07:00:43.673Z,13.22
2019-02-07T07:03:14.695Z,12.03
2019-02-07T07:05:51.911Z,14.45
2019-02-07T07:08:40.361Z,12.68
2019-02-07T07:11:17.239Z,12.58
2019-02-07T07:13:48.384Z,13.50
2019-02-07T07:16:38.062Z,13.08
2019-02-07T07:19:21.185Z,13.72
2019-02-07T07:21:58.367Z,12.68
2019-02-07T07:24:29.411Z,12.15
2019-02-07T07:27:09.769Z,12.47
2019-02-07T07:29:57.504Z,14.45
2019-02-07T07:32:34.894Z,15.30
2019-02-07T07:35:23.242Z,15.10
2019-02-07T07:38:00.631Z,14.87
2019-02-07T07:40:31.637Z,14.50
2019-02-07T07:43:02.732Z,14.65
2019-02-07T07:45:45.605Z,14.78
2019-02-07T07:48:28.626Z,15.80
2019-02-07T07:51:00.166Z,14.00
2019-02-07T07:53:31.171Z,15.23
2019-02-07T07:56:08.207Z,16.40
2019-02-07T07:58:39.219Z,16.52
2019-02-07T08:01:16.043Z,16.12
2019-02-07T08:04:03.306Z,15.13
2019-02-07T08:06:37.488Z,15.15
2019-02-07T08:09:18.150Z,14.23
2019-02-07T08:11:49.278Z,15.23
2019-02-07T08:14:20.537Z,14.80
2019-02-07T08:16:54.656Z,14.25
2019-02-07T08:19:26.808Z,15.55
2019-02-07T08:22:05.380Z,15.78
2019-02-07T08:24:39.242Z,16.45
2019-02-07T08:27:16.839Z,14.87
2019-02-07T08:29:54.125Z,14.78
2019-02-07T08:32:41.653Z,16.12
2019-02-07T08:35:30.511Z,15.35
2019-02-07T08:38:07.761Z,15.72
2019-02-07T08:40:44.679Z,16.25
2019-02-07T08:43:15.855Z,17.23
2019-02-07T08:45:46.890Z,17.52
2019-02-07T08:48:20.772Z,17.82
2019-02-07T08:51:01.334Z,17.92
2019-02-07T08:53:44.562Z,17.20
2019-02-07T08:56:15.704Z,17.95
2019-02-07T08:58:59.034Z,18.70
2019-02-07T09:01:32.739Z,18.95
2019-02-07T09:04:03.881Z,24.95
2019-02-07T09:06:34.876Z,25.75
2019-02-07T09:09:09.241Z,23.65
2019-02-07T09:11:43.308Z,20.88
2019-02-07T09:14:29.650Z,19.00
2019-02-07T09:17:14.527Z,18.12
2019-02-07T09:20:02.354Z,18.32
2019-02-07T09:22:33.498Z,18.32
2019-02-07T09:25:11.092Z,17.90
2019-02-07T09:27:47.766Z,17.73
2019-02-07T09:30:37.339Z,20.15
2019-02-07T09:33:11.759Z,19.50
2019-02-07T09:35:45.672Z,20.15
2019-02-07T09:38:33.507Z,22.15
2019-02-07T09:41:14.067Z,23.55
2019-02-07T09:43:45.109Z,25.72
2019-02-07T09:46:16.766Z,25.48
2019-02-07T09:48:47.769Z,25.37
2019-02-07T09:51:28.065Z,23.50
2019-02-07T09:54:02.063Z,19.65
2019-02-07T09:56:34.346Z,18.15
2019-02-07T09:59:20.543Z,19.75
2019-02-07T10:01:57.599Z,18.82
2019-02-07T10:04:28.663Z,18.85
2019-02-07T10:07:08.820Z,19.65
2019-02-07T10:09:39.860Z,20.92
2019-02-07T10:12:20.419Z,21.48
2019-02-07T10:15:09.501Z,21.00
2019-02-07T10:17:43.703Z,21.60
2019-02-07T10:20:29.904Z,22.13
2019-02-07T10:23:04.023Z,20.68
2019-02-07T10:25:41.186Z,21.55
2019-02-07T10:28:18.561Z,20.95
2019-02-07T10:30:50.755Z,20.40
2019-02-07T10:33:21.894Z,20.85
2019-02-07T10:36:05.040Z,20.68
2019-02-07T10:41:18.782Z,21.07
2019-02-07T10:44:06.652Z,20.25
2019-02-07T10:46:38.032Z,21.23
2019-02-07T10:49:20.883Z,21.37
2019-02-07T10:51:52.031Z,19.23
2019-02-07T10:54:29.008Z,20.90
2019-02-07T10:57:12.132Z,22.65
2019-02-07T10:59:59.559Z,19.62
2019-02-07T11:02:30.599Z,21.25
2019-02-07T11:05:04.711Z,20.85
2019-02-07T11:07:41.896Z,20.30
2019-02-07T11:10:22.043Z,20.25
2019-02-07T11:13:05.058Z,20.85
2019-02-07T11:15:38.981Z,20.70
2019-02-07T11:18:10.126Z,20.90
2019-02-07T11:20:57.760Z,21.93
2019-02-07T11:23:32.073Z,21.40
2019-02-07T11:26:19.908Z,21.90
2019-02-07T11:28:51.063Z,20.82
2019-02-07T11:31:30.887Z,21.15
2019-02-07T11:34:02.153Z,20.77
2019-02-07T11:36:53.424Z,19.90
2019-02-07T11:39:15.081Z,21.30
2019-02-07T11:41:49.299Z,22.07
2019-02-07T11:44:20.442Z,23.02
2019-02-07T11:47:07.867Z,22.25
2019-02-07T11:49:39.488Z,22.35
2019-02-07T11:52:16.096Z,20.72
2019-02-07T11:54:53.175Z,21.97
2019-02-07T11:57:33.025Z,21.80
2019-02-07T12:00:04.175Z,21.68
2019-02-07T12:02:38.387Z,21.62
2019-02-07T12:05:26.424Z,21.87
2019-02-07T12:07:58.078Z,21.50
2019-02-07T12:10:44.378Z,22.32
2019-02-07T12:13:18.387Z,21.02
2019-02-07T12:15:49.530Z,22.10
2019-02-07T12:18:21.646Z,21.33
2019-02-07T12:20:58.473Z,22.27
2019-02-07T12:23:47.182Z,21.48
2019-02-07T12:26:18.682Z,22.42
2019-02-07T12:29:04.880Z,21.27
2019-02-07T12:31:36.022Z,22.55
2019-02-07T12:34:13.110Z,23.57
2019-02-07T12:36:59.404Z,23.80
2019-02-07T12:39:30.548Z,23.38
2019-02-07T12:42:02.511Z,24.12
2019-02-07T12:44:39.390Z,23.98
2019-02-07T12:47:27.327Z,22.60
2019-02-07T12:50:07.070Z,24.60
2019-02-07T12:52:50.401Z,22.87
2019-02-07T12:55:38.053Z,24.35
2019-02-07T12:58:11.835Z,23.47
2019-02-07T13:00:46.461Z,23.15
2019-02-07T13:03:23.244Z,24.10
2019-02-07T13:05:54.379Z,23.90
2019-02-07T13:08:28.595Z,25.97
2019-02-07T13:10:59.760Z,24.30
2019-02-07T13:13:33.546Z,23.25
2019-02-07T13:16:20.084Z,23.98
2019-02-07T13:18:57.233Z,23.32
2019-02-07T13:21:34.035Z,23.18
2019-02-07T13:24:05.192Z,23.05
2019-02-07T13:26:43.786Z,24.00
2019-02-07T13:29:23.926Z,24.80
2019-02-07T13:32:03.929Z,23.92
2019-02-07T13:34:47.013Z,23.27
2019-02-07T13:37:36.407Z,23.20
2019-02-07T13:40:24.823Z,22.02
2019-02-07T13:43:01.905Z,23.65
2019-02-07T13:45:42.264Z,25.15
2019-02-07T13:48:28.507Z,29.10
2019-02-07T13:50:59.681Z,24.98
2019-02-07T13:53:42.938Z,25.43
2019-02-07T13:56:31.897Z,25.30
2019-02-07T13:59:03.035Z,24.72
2019-02-07T14:01:37.050Z,25.40
2019-02-07T14:04:11.162Z,25.57
2019-02-07T14:06:45.482Z,23.45
2019-02-07T14:09:16.528Z,24.23
2019-02-07T14:11:59.850Z,24.90
2019-02-07T14:14:40.128Z,24.40
2019-02-07T14:17:17.191Z,25.10
2019-02-07T14:20:03.825Z,22.37
2019-02-07T14:22:34.329Z,25.35
2019-02-07T14:25:16.120Z,24.77
2019-02-07T14:27:47.365Z,25.25
2019-02-07T14:30:24.247Z,25.17
2019-02-07T14:33:10.748Z,24.20
2019-02-07T14:35:50.702Z,24.57
2019-02-07T14:41:29.234Z,24.30
2019-02-07T14:44:03.041Z,25.92
2019-02-07T14:46:39.817Z,25.62
2019-02-07T14:49:09.219Z,24.45
2019-02-07T14:51:38.625Z,24.27
2019-02-07T14:54:08.230Z,26.93
2019-02-07T14:56:37.736Z,25.35
2019-02-07T14:59:07.137Z,26.85
2019-02-07T15:01:36.641Z,27.10
2019-02-07T15:04:06.251Z,24.72
2019-02-07T15:06:35.755Z,24.57
2019-02-07T15:09:08.538Z,25.97
2019-02-07T15:11:37.939Z,25.90
2019-02-07T15:14:07.549Z,25.00
2019-02-07T15:16:37.054Z,24.50
2019-02-07T15:19:06.456Z,24.55
2019-02-07T15:21:35.858Z,25.45
2019-02-07T15:24:08.305Z,25.52
2019-02-07T15:26:36.709Z,25.65
2019-02-07T15:29:06.321Z,23.25
2019-02-07T15:31:36.030Z,24.70
2019-02-07T15:34:05.536Z,27.55
2019-02-07T15:36:35.039Z,25.20
2019-02-07T15:39:07.719Z,24.10
2019-02-07T15:41:37.333Z,25.30
2019-02-07T15:44:06.708Z,24.23
2019-02-07T15:46:36.134Z,25.97
2019-02-07T15:49:05.638Z,24.32
2019-02-07T15:51:35.143Z,25.48
2019-02-07T15:54:05.364Z,25.25
2019-02-07T15:56:34.730Z,27.07
2019-02-07T15:59:05.807Z,28.42
2019-02-07T16:01:39.612Z,28.57
2019-02-07T16:04:13.522Z,26.02
2019-02-07T16:06:44.256Z,25.95
2019-02-07T16:09:14.273Z,27.07
2019-02-07T16:11:44.087Z,27.50
2019-02-07T16:14:13.590Z,26.02
2019-02-07T16:16:42.993Z,27.50
2019-02-07T16:19:12.502Z,29.67
2019-02-07T16:21:42.005Z,26.90
2019-02-07T16:24:11.510Z,28.38
2019-02-07T16:26:41.014Z,27.00
2019-02-07T16:29:10.637Z,26.12
2019-02-07T16:31:40.026Z,26.60
2019-02-07T16:34:09.427Z,27.98
2019-02-07T16:36:39.037Z,27.73
2019-02-07T16:39:08.643Z,26.77
2019-02-07T16:41:38.148Z,25.90
2019-02-07T16:44:07.756Z,26.05
2019-02-07T16:46:37.465Z,29.32
2019-02-07T16:49:07.074Z,27.37
2019-02-07T16:51:37.091Z,27.15
2019-02-07T16:54:06.449Z,29.10
2019-02-07T16:56:36.000Z,29.20
2019-02-07T16:59:05.422Z,29.63
2019-02-07T17:01:35.010Z,27.45
2019-02-07T17:04:06.151Z,27.82
2019-02-07T17:06:35.558Z,27.85
2019-02-07T17:09:08.989Z,29.27
2019-02-07T17:11:38.459Z,28.57
2019-02-07T17:14:07.962Z,28.98
2019-02-07T17:16:37.467Z,28.62
2019-02-07T17:19:06.869Z,30.95
2019-02-07T17:21:36.272Z,29.15
2019-02-07T17:24:05.777Z,27.90
2019-02-07T17:26:35.282Z,31.73
2019-02-07T17:29:04.687Z,31.93
2019-02-07T17:31:34.294Z,31.15
2019-02-07T17:34:03.699Z,29.18
2019-02-07T17:36:33.115Z,30.48
2019-02-07T17:39:02.611Z,29.52
2019-02-07T17:41:33.644Z,28.62
2019-02-07T17:44:03.252Z,29.48
2019-02-07T17:46:33.781Z,29.32
2019-02-07T17:49:03.184Z,30.52
2019-02-07T17:51:34.125Z,28.17
2019-02-07T17:54:03.531Z,29.63
2019-02-07T17:56:32.929Z,29.30
2019-02-07T17:59:02.433Z,28.62
2019-02-07T18:01:31.939Z,28.17
2019-02-07T18:04:01.342Z,28.25
2019-02-07T18:06:31.975Z,28.65
2019-02-07T18:09:01.685Z,29.80
2019-02-07T18:11:32.725Z,28.02
2019-02-07T18:14:02.228Z,27.77
2019-02-07T18:16:31.939Z,27.73
2019-02-07T18:19:01.445Z,30.68
2019-02-07T18:21:34.188Z,29.75
2019-02-07T18:24:02.197Z,29.40
2019-02-07T18:26:31.594Z,30.23
2019-02-07T18:29:01.023Z,30.15
2019-02-07T18:31:31.121Z,29.60
2019-02-07T18:34:00.525Z,29.95
2019-02-07T18:36:30.029Z,30.90
2019-02-07T18:38:59.641Z,31.42
2019-02-07T18:41:29.047Z,32.33
2019-02-07T18:43:58.441Z,29.23
2019-02-07T18:46:28.561Z,28.70
2019-02-07T18:48:57.966Z,31.42
2019-02-07T18:51:27.370Z,29.10
2019-02-07T18:53:56.869Z,29.82
2019-02-07T18:56:26.276Z,27.40
2019-02-07T18:58:56.805Z,28.42
2019-02-07T19:01:26.620Z,25.85
2019-02-07T19:03:56.021Z,28.12
2019-02-07T19:06:25.421Z,26.12
2019-02-07T19:08:54.929Z,28.67
2019-02-07T19:11:24.330Z,29.50
2019-02-07T19:13:53.835Z,28.40
2019-02-07T19:16:23.342Z,28.57
2019-02-07T19:18:52.746Z,29.02
2019-02-07T19:21:22.353Z,28.17
2019-02-07T19:23:51.781Z,27.77
2019-02-07T19:26:21.367Z,28.17
2019-02-07T19:28:50.971Z,29.70
2019-02-07T19:31:20.682Z,27.30
2019-02-07T19:33:50.288Z,28.90
2019-02-07T19:36:19.899Z,28.92
2019-02-07T19:38:49.502Z,28.73
2019-02-07T19:41:19.011Z,28.25
2019-02-07T19:43:48.771Z,29.48
2019-02-07T19:46:18.735Z,28.38
2019-02-07T19:48:48.239Z,29.18
2019-02-07T19:51:17.744Z,29.82
2019-02-07T19:53:47.248Z,28.98
2019-02-07T19:56:16.760Z,26.85
2019-02-07T19:58:46.259Z,27.13
2019-02-07T20:01:16.686Z,28.83
2019-02-07T20:03:46.192Z,27.90
2019-02-07T20:06:15.698Z,29.07
2019-02-07T20:08:45.201Z,28.25
2019-02-07T20:11:14.604Z,30.27
2019-02-07T20:13:44.109Z,29.55
2019-02-07T20:16:14.125Z,33.13
2019-02-07T20:18:44.041Z,32.70
2019-02-07T20:21:13.547Z,33.73
2019-02-07T20:23:43.361Z,36.42
2019-02-07T20:26:12.764Z,35.13
2019-02-07T20:28:43.602Z,35.92
2019-02-07T20:31:13.208Z,35.03
2019-02-07T20:33:42.564Z,35.52
2019-02-07T20:36:12.115Z,34.43
2019-02-07T20:38:41.722Z,33.05
2019-02-07T20:41:11.128Z,34.08
2019-02-07T20:43:40.527Z,32.55
2019-02-07T20:46:10.237Z,33.65
2019-02-07T20:48:40.152Z,32.45
2019-02-07T20:51:09.863Z,33.00
2019-02-07T20:53:39.880Z,33.70
2019-02-07T20:56:09.283Z,34.50
2019-02-07T20:58:39.811Z,32.73
2019-02-07T21:01:09.418Z,33.85
2019-02-07T21:03:38.821Z,31.65
2019-02-07T21:06:08.327Z,32.38
2019-02-07T21:08:37.750Z,24.47
2019-02-07T21:11:07.139Z,28.80
2019-02-07T21:13:36.514Z,28.00
2019-02-07T21:16:05.924Z,29.32
2019-02-07T21:18:35.297Z,28.05
2019-02-07T21:21:04.650Z,29.48
2019-02-07T21:23:34.359Z,29.10
2019-02-07T21:26:03.717Z,29.05
2019-02-07T21:28:33.074Z,30.57
2019-02-07T21:31:02.518Z,29.82
2019-02-07T21:33:31.890Z,30.08
2019-02-07T21:36:01.245Z,28.27
2019-02-07T21:38:31.114Z,29.07
2019-02-07T21:41:00.516Z,31.27
2019-02-07T21:43:29.912Z,30.65
2019-02-07T21:45:59.331Z,30.15
2019-02-07T21:48:28.754Z,29.05
2019-02-07T21:50:58.136Z,29.50
2019-02-07T21:53:27.577Z,29.55
2019-02-07T21:55:57.245Z,28.45
2019-02-07T21:58:26.645Z,28.35
2019-02-07T22:00:56.048Z,27.93
2019-02-07T22:03:25.422Z,26.95
2019-02-07T22:05:54.868Z,28.55
2019-02-07T22:08:24.302Z,26.37
2019-02-07T22:10:54.176Z,27.75
2019-02-07T22:13:23.545Z,26.42
2019-02-07T22:15:52.965Z,28.02
2019-02-07T22:18:22.326Z,27.87
2019-02-07T22:20:51.714Z,28.07
2019-02-07T22:23:21.093Z,27.05
2019-02-07T22:25:50.866Z,26.95
2019-02-07T22:28:20.226Z,28.12
2019-02-07T22:30:49.702Z,27.90
2019-02-07T22:33:19.079Z,27.00
2019-02-07T22:35:48.473Z,28.02
2019-02-07T22:38:17.878Z,26.55
2019-02-07T22:40:48.953Z,28.12
2019-02-07T22:43:18.458Z,27.27
2019-02-07T22:45:47.818Z,27.17
2019-02-07T22:48:18.285Z,29.42
2019-02-07T22:50:47.691Z,29.45
2019-02-07T22:53:17.068Z,29.18
2019-02-07T22:55:46.841Z,29.00
2019-02-07T22:58:16.316Z,29.40
2019-02-07T23:01:01.026Z,30.48
2019-02-07T23:03:30.865Z,29.32
2019-02-07T23:06:00.241Z,28.77
2019-02-07T23:08:29.926Z,29.12
2019-02-07T23:10:59.309Z,29.77
2019-02-07T23:13:28.693Z,31.05
2019-02-07T23:15:59.045Z,29.63
2019-02-07T23:18:28.492Z,28.23
2019-02-07T23:20:57.850Z,29.92
2019-02-07T23:23:27.339Z,30.02
2019-02-07T23:25:56.743Z,28.90
2019-02-07T23:28:26.126Z,30.12
2019-02-07T23:30:55.501Z,30.25
2019-02-07T23:33:24.885Z,31.05
2019-02-07T23:35:54.266Z,30.85
2019-02-07T23:38:23.939Z,30.68
2019-02-07T23:40:53.329Z,30.62
2019-02-07T23:43:23.076Z,29.65
2019-02-07T23:45:52.445Z,30.05
2019-02-07T23:48:21.911Z,29.95
2019-02-07T23:50:51.288Z,30.27
2019-02-07T23:53:20.942Z,30.48
2019-02-07T23:55:50.342Z,29.07
2019-02-07T23:58:19.719Z,30.60
